Agua de Enmedio, Mexico

12:48 PM MST on December 04, 2016 (GMT -0700)
Gen Manuel Marquez De Leon | | Change Station

Elev 69 ft 24.07 °N, 110.36 °W | Updated 55 minutes ago

Scattered Clouds
Scattered Clouds
72 °F
Feels Like 72 °F
N
8
Wind Variable Wind from NNW

Today
High -- | Low -- °F
--% Chance of Precip.
Yesterday
High -- | Low -- °F
Precip. -- in
Pressure 29.97 in
Visibility 10.0 miles
Clouds Scattered Clouds 3000 ft
Dew Point 46 °F
Humidity 41%
Rainfall 0.00 in
Snow Depth Not available.
6:53 AM 5:35 PM
Waxing Crescent, 25% visible
METAR MMLP 041853Z 34007KT 10SM SCT030 22/08 A2997 RMK 8/100
Pressure 29.97 in
Visibility 10.0 miles
Clouds Scattered Clouds 3000 ft
Dew Point 46 °F
Humidity 41%
Rainfall 0.00 in
Snow Depth Not available.
6:53 AM 5:35 PM
Waxing Crescent, 25% visible
METAR MMLP 041853Z 34007KT 10SM SCT030 22/08 A2997 RMK 8/100

10-Day Weather Forecast

No radar image for this location.
×

Almanac

Astronomy

Dec. 04, 2016 Rise Set
Actual Time
Civil Twilight
Nautical Twilight
Astronomical Twilight
Moon
Length of Visible Light
Length of Day
Tomorrow will be .
, % of the Moon is Illuminated

Today's Extremes

Country Highs Country Lows

Community

WunderPhotos

Upload Photos

1,955,652 photos uploaded!

WunderBlog® & News

Nearby

Air Quality

  Air Quality AQ Index Pollutant
Not available.

Snow Depth

Station Depth Elevation

Earthquake Activity

City Distance Mag. Time & Date
Minimum magnitude displayed is 2.5.

Coastal Water Temperatures

Place Temperature

Stations

Nearby Weather Stations

Station Location Temp. Windchill Dew Point Humidity Wind Precip. Elev Updated Type